createdAt,value
2019-05-03T00:02:27.435Z,27.80
2019-05-03T00:05:04.714Z,26.43
2019-05-03T00:07:33.489Z,25.70
2019-05-03T00:10:02.849Z,26.10
2019-05-03T00:12:32.750Z,26.50
2019-05-03T00:15:06.129Z,27.03
2019-05-03T00:17:34.981Z,28.57
2019-05-03T00:20:04.593Z,30.00
2019-05-03T00:22:33.399Z,25.37
2019-05-03T00:25:06.034Z,26.13
2019-05-03T00:27:32.381Z,25.87
2019-05-03T00:30:02.793Z,25.90
2019-05-03T00:32:32.329Z,25.50
2019-05-03T00:35:02.756Z,26.40
2019-05-03T00:37:36.149Z,27.60
2019-05-03T00:40:08.774Z,28.63
2019-05-03T00:42:37.817Z,27.57
2019-05-03T00:45:08.633Z,28.93
2019-05-03T00:47:37.412Z,27.93
2019-05-03T00:50:06.797Z,27.93
2019-05-03T00:52:35.505Z,27.67
2019-05-03T00:55:15.802Z,27.60
2019-05-03T00:57:36.275Z,27.13
2019-05-03T01:00:08.154Z,28.80
2019-05-03T01:02:37.114Z,27.50
2019-05-03T01:05:07.720Z,28.50
2019-05-03T01:07:36.403Z,27.77
2019-05-03T01:10:07.329Z,26.87
2019-05-03T01:12:36.241Z,28.07
2019-05-03T01:15:08.298Z,27.63
2019-05-03T01:17:37.121Z,28.23
2019-05-03T01:20:09.035Z,28.17
2019-05-03T01:22:37.820Z,27.50
2019-05-03T01:25:07.336Z,26.50
2019-05-03T01:27:36.339Z,25.60
2019-05-03T01:30:07.679Z,27.70
2019-05-03T01:32:36.651Z,26.00
2019-05-03T01:35:08.513Z,25.67
2019-05-03T01:37:37.589Z,25.67
2019-05-03T01:40:07.926Z,25.53
2019-05-03T01:42:36.707Z,27.57
2019-05-03T01:45:06.745Z,25.27
2019-05-03T01:47:53.429Z,26.77
2019-05-03T01:50:23.716Z,26.53
2019-05-03T01:52:54.102Z,26.87
2019-05-03T01:55:24.602Z,26.87
2019-05-03T01:57:53.422Z,26.60
2019-05-03T02:00:26.962Z,28.63
2019-05-03T02:02:57.540Z,27.00
2019-05-03T02:05:33.692Z,26.90
2019-05-03T02:08:02.456Z,26.83
2019-05-03T02:10:32.183Z,27.20
2019-05-03T02:13:01.684Z,26.37
2019-05-03T02:15:32.579Z,27.03
2019-05-03T02:18:02.679Z,25.27
2019-05-03T02:20:32.379Z,26.13
2019-05-03T02:23:02.775Z,27.60
2019-05-03T02:25:32.341Z,25.80
2019-05-03T02:28:01.908Z,27.00
2019-05-03T02:30:33.145Z,25.17
2019-05-03T02:33:04.058Z,24.83
2019-05-03T02:35:33.422Z,26.43
2019-05-03T02:38:03.504Z,25.73
2019-05-03T02:40:33.864Z,26.30
2019-05-03T02:43:25.611Z,24.87
2019-05-03T02:45:57.512Z,25.30
2019-05-03T02:48:27.999Z,26.30
2019-05-03T02:50:56.887Z,24.87
2019-05-03T02:53:26.487Z,24.53
2019-05-03T02:55:56.151Z,23.97
2019-05-03T02:58:25.897Z,25.50
2019-05-03T03:01:02.733Z,24.40
2019-05-03T03:03:36.067Z,24.90
2019-05-03T03:06:07.034Z,23.63
2019-05-03T03:08:37.801Z,24.87
2019-05-03T03:11:09.193Z,23.73
2019-05-03T03:13:39.002Z,24.23
2019-05-03T03:16:10.236Z,22.93
2019-05-03T03:18:40.616Z,22.83
2019-05-03T03:21:15.658Z,22.17
2019-05-03T03:23:52.152Z,22.30
2019-05-03T03:26:34.535Z,22.63
2019-05-03T03:28:56.935Z,22.40
2019-05-03T03:31:37.877Z,21.43
2019-05-03T03:34:08.739Z,22.77
2019-05-03T03:36:54.501Z,20.90
2019-05-03T03:39:15.154Z,22.20
2019-05-03T03:41:45.442Z,22.13
2019-05-03T03:44:15.468Z,21.90
2019-05-03T03:46:45.551Z,22.17
2019-05-03T03:49:16.290Z,22.53
2019-05-03T03:51:47.126Z,22.33
2019-05-03T03:54:18.143Z,22.30
2019-05-03T03:56:59.265Z,23.17
2019-05-03T03:59:20.840Z,22.73
2019-05-03T04:01:49.641Z,23.63
2019-05-03T04:04:18.411Z,24.13
2019-05-03T04:06:47.500Z,23.30
2019-05-03T04:09:16.268Z,24.03
2019-05-03T04:11:46.276Z,23.60
2019-05-03T04:14:29.142Z,23.77
2019-05-03T04:16:59.869Z,23.77
2019-05-03T04:19:30.366Z,23.80
2019-05-03T04:21:59.369Z,23.13
2019-05-03T04:24:29.243Z,22.77
2019-05-03T04:27:15.584Z,23.20
2019-05-03T04:29:39.031Z,22.87
2019-05-03T04:32:09.959Z,21.03
2019-05-03T04:34:38.982Z,23.00
2019-05-03T04:37:07.857Z,23.07
2019-05-03T04:39:36.764Z,22.57
2019-05-03T04:42:06.703Z,23.37
2019-05-03T04:44:36.173Z,21.70
2019-05-03T04:47:06.824Z,22.27
2019-05-03T04:49:36.455Z,20.10
2019-05-03T04:52:06.018Z,20.90
2019-05-03T04:54:39.383Z,22.07
2019-05-03T04:57:08.365Z,21.13
2019-05-03T04:59:37.261Z,20.33
2019-05-03T05:02:06.415Z,21.33
2019-05-03T05:04:35.887Z,20.87
2019-05-03T05:07:06.136Z,20.90
2019-05-03T05:09:35.388Z,20.30
2019-05-03T05:12:05.708Z,21.77
2019-05-03T05:14:35.394Z,19.70
2019-05-03T05:17:06.106Z,20.40
2019-05-03T05:19:36.902Z,19.73
2019-05-03T05:22:07.386Z,19.77
2019-05-03T05:24:36.201Z,19.93
2019-05-03T05:27:12.173Z,19.13
2019-05-03T05:29:41.853Z,17.77
2019-05-03T05:32:10.828Z,17.57
2019-05-03T05:34:39.543Z,18.90
2019-05-03T05:37:08.515Z,12.17
2019-05-03T05:39:37.290Z,11.80
2019-05-03T05:42:06.130Z,10.90
2019-05-03T05:44:35.341Z,9.50
2019-05-03T05:47:11.950Z,9.33
2019-05-03T05:49:54.637Z,8.00
2019-05-03T05:52:24.509Z,8.07
2019-05-03T05:55:01.476Z,7.43
2019-05-03T05:57:31.865Z,5.90
2019-05-03T06:00:08.127Z,4.87
2019-05-03T06:02:37.116Z,3.90
2019-05-03T06:05:06.949Z,3.93
2019-05-03T06:07:49.319Z,4.43
2019-05-03T06:10:24.715Z,4.83
2019-05-03T06:12:54.802Z,5.20
2019-05-03T06:15:34.646Z,5.73
2019-05-03T06:18:05.768Z,4.80
2019-05-03T06:20:51.303Z,4.80
2019-05-03T06:23:24.940Z,4.20
2019-05-03T06:25:54.491Z,2.80
2019-05-03T06:28:25.398Z,2.10
2019-05-03T06:30:59.013Z,2.00
2019-05-03T06:33:27.665Z,1.70
2019-05-03T06:35:56.676Z,3.70
2019-05-03T06:38:25.712Z,2.40
2019-05-03T06:40:54.551Z,2.60
2019-05-03T06:43:24.509Z,1.80
2019-05-03T06:45:54.855Z,1.83
2019-05-03T06:48:27.945Z,2.00
2019-05-03T06:50:55.796Z,1.97
2019-05-03T06:53:25.424Z,2.20
2019-05-03T06:55:55.399Z,1.70
2019-05-03T06:58:33.046Z,3.60
2019-05-03T07:01:14.773Z,1.80
2019-05-03T07:03:51.334Z,2.63
2019-05-03T07:06:33.554Z,1.70
2019-05-03T07:08:54.946Z,1.80
2019-05-03T07:11:24.726Z,1.83
2019-05-03T07:13:54.987Z,2.30
2019-05-03T07:16:25.335Z,1.90
2019-05-03T07:18:56.564Z,2.23
2019-05-03T07:21:24.897Z,2.30
2019-05-03T07:23:55.142Z,2.60
2019-05-03T07:26:25.425Z,2.80
2019-05-03T07:28:54.692Z,3.20
2019-05-03T07:31:25.363Z,2.97
2019-05-03T07:33:55.102Z,2.50
2019-05-03T07:36:27.548Z,2.50
2019-05-03T07:38:55.577Z,2.70
2019-05-03T07:41:27.171Z,3.10
2019-05-03T07:43:55.443Z,3.00
2019-05-03T07:46:24.733Z,3.10
2019-05-03T07:48:54.870Z,2.80
2019-05-03T07:51:24.925Z,2.53
2019-05-03T07:53:55.542Z,2.80
2019-05-03T07:56:26.478Z,2.77
2019-05-03T07:59:00.548Z,2.97
2019-05-03T08:01:28.139Z,2.90
2019-05-03T08:03:57.402Z,3.00
2019-05-03T08:06:26.394Z,3.47
2019-05-03T08:08:55.455Z,2.90
2019-05-03T08:11:24.873Z,2.90
2019-05-03T08:13:54.977Z,2.70
2019-05-03T08:16:25.139Z,2.73
2019-05-03T08:18:55.802Z,2.77
2019-05-03T08:21:25.423Z,3.43
2019-05-03T08:23:55.735Z,3.37
2019-05-03T08:26:25.743Z,3.20
2019-05-03T08:28:55.746Z,3.73
2019-05-03T08:31:35.451Z,3.77
2019-05-03T08:34:17.905Z,3.50
2019-05-03T08:36:57.439Z,3.10
2019-05-03T08:39:26.893Z,3.30
2019-05-03T08:41:59.872Z,2.23
2019-05-03T08:44:29.122Z,2.73
2019-05-03T08:46:59.077Z,2.40
2019-05-03T08:49:28.209Z,2.10
2019-05-03T08:51:59.327Z,2.20
2019-05-03T08:54:28.300Z,2.20
2019-05-03T08:56:57.164Z,1.90
2019-05-03T08:59:29.752Z,1.93
2019-05-03T09:01:56.855Z,2.10
2019-05-03T09:04:36.363Z,2.40
2019-05-03T09:06:56.222Z,2.00
2019-05-03T09:09:35.780Z,2.00
2019-05-03T09:12:04.847Z,2.50
2019-05-03T09:14:42.562Z,2.30
2019-05-03T09:17:04.955Z,2.03
2019-05-03T09:19:34.682Z,2.33
2019-05-03T09:22:06.199Z,1.70
2019-05-03T09:24:35.261Z,2.50
2019-05-03T09:27:05.138Z,2.63
2019-05-03T09:29:41.060Z,2.27
2019-05-03T09:32:05.247Z,2.67
2019-05-03T09:34:35.147Z,2.20
2019-05-03T09:37:04.910Z,3.10
2019-05-03T09:39:35.557Z,2.80
2019-05-03T09:42:04.911Z,3.07
2019-05-03T09:44:35.018Z,3.40
2019-05-03T09:47:05.561Z,4.10
2019-05-03T09:49:34.946Z,4.03
2019-05-03T09:52:08.110Z,3.80
2019-05-03T09:54:36.271Z,4.73
2019-05-03T09:57:06.725Z,3.77
2019-05-03T09:59:35.643Z,3.80
2019-05-03T10:02:05.071Z,4.13
2019-05-03T10:04:36.389Z,4.50
2019-05-03T10:07:04.603Z,4.10
2019-05-03T10:09:35.393Z,3.90
2019-05-03T10:12:06.206Z,4.87
2019-05-03T10:14:35.048Z,5.00
2019-05-03T10:17:20.748Z,5.40
2019-05-03T10:19:49.897Z,4.43
2019-05-03T10:22:21.864Z,4.13
2019-05-03T10:24:50.757Z,4.03
2019-05-03T10:27:19.511Z,4.60
2019-05-03T10:29:48.247Z,4.80
2019-05-03T10:32:18.865Z,4.57
2019-05-03T10:34:58.071Z,4.20
2019-05-03T10:37:31.581Z,4.60
2019-05-03T10:40:04.956Z,4.23
2019-05-03T10:42:32.524Z,4.93
2019-05-03T10:45:01.496Z,4.43
2019-05-03T10:47:30.417Z,4.60
2019-05-03T10:49:59.298Z,5.07
2019-05-03T10:52:29.830Z,5.20
2019-05-03T10:54:58.848Z,4.80
2019-05-03T10:57:29.464Z,5.67
2019-05-03T10:59:58.640Z,6.20
2019-05-03T11:02:28.974Z,6.57
2019-05-03T11:04:57.956Z,6.47
2019-05-03T11:07:26.833Z,5.70
2019-05-03T11:09:55.893Z,5.80
2019-05-03T11:12:25.428Z,6.67
2019-05-03T11:14:54.741Z,5.87
2019-05-03T11:17:25.505Z,5.43
2019-05-03T11:19:54.706Z,5.43
2019-05-03T11:22:25.229Z,5.33
2019-05-03T11:24:54.634Z,4.97
2019-05-03T11:27:35.399Z,4.93
2019-05-03T11:30:09.599Z,4.90
2019-05-03T11:32:40.714Z,4.77
2019-05-03T11:35:11.800Z,3.60
2019-05-03T11:37:57.742Z,3.43
2019-05-03T11:40:26.626Z,3.83
2019-05-03T11:42:57.057Z,3.37
2019-05-03T11:45:26.432Z,3.53
2019-05-03T11:47:55.327Z,3.93
2019-05-03T11:50:25.369Z,3.30
2019-05-03T11:52:55.423Z,3.77
2019-05-03T11:55:26.702Z,3.60
2019-05-03T11:57:56.662Z,3.20
2019-05-03T12:00:27.040Z,2.90
2019-05-03T12:02:57.470Z,2.97
2019-05-03T12:05:27.982Z,3.60
2019-05-03T12:07:56.880Z,4.27
2019-05-03T12:10:46.794Z,4.30
2019-05-03T12:12:58.267Z,3.77
2019-05-03T12:15:27.230Z,3.63
2019-05-03T12:18:05.920Z,3.83
2019-05-03T12:20:37.209Z,3.73
2019-05-03T12:23:05.955Z,4.10
2019-05-03T12:25:36.127Z,4.27
2019-05-03T12:28:06.012Z,3.77
2019-05-03T12:30:35.659Z,3.87
2019-05-03T12:33:05.953Z,3.83
2019-05-03T12:35:35.830Z,3.30
2019-05-03T12:38:05.586Z,2.67
2019-05-03T12:40:34.953Z,2.37
2019-05-03T12:43:06.107Z,2.90
2019-05-03T12:45:35.503Z,2.80
2019-05-03T12:48:05.197Z,2.67
2019-05-03T12:50:34.846Z,2.60
2019-05-03T12:53:04.778Z,2.63
2019-05-03T12:55:35.564Z,3.53
2019-05-03T12:58:06.323Z,2.90
2019-05-03T13:00:37.345Z,3.10
2019-05-03T13:03:24.638Z,2.30
2019-05-03T13:05:55.542Z,2.27
2019-05-03T13:08:38.467Z,2.00
2019-05-03T13:11:07.633Z,2.03
2019-05-03T13:13:48.258Z,2.60
2019-05-03T13:16:18.886Z,2.33
2019-05-03T13:18:47.902Z,2.50
2019-05-03T13:21:16.879Z,2.50
2019-05-03T13:23:45.607Z,1.90
2019-05-03T13:26:14.970Z,2.27
2019-05-03T13:28:45.680Z,2.17
2019-05-03T13:31:16.181Z,2.10
2019-05-03T13:33:45.535Z,1.90
2019-05-03T13:36:15.185Z,2.43
2019-05-03T13:38:45.244Z,2.33
2019-05-03T13:41:14.562Z,1.63
2019-05-03T13:43:45.339Z,2.53
2019-05-03T13:46:15.646Z,2.03
2019-05-03T13:48:46.632Z,1.90
2019-05-03T13:51:15.448Z,1.60
2019-05-03T13:53:44.476Z,1.77
2019-05-03T13:56:15.161Z,1.60
2019-05-03T13:58:44.599Z,2.37
2019-05-03T14:01:14.735Z,1.80
2019-05-03T14:03:45.265Z,1.70
2019-05-03T14:06:14.592Z,1.77
2019-05-03T14:08:45.290Z,2.10
2019-05-03T14:11:15.580Z,1.90
2019-05-03T14:13:44.650Z,2.70
2019-05-03T14:16:14.441Z,1.87
2019-05-03T14:18:45.629Z,2.10
2019-05-03T14:21:24.340Z,1.57
2019-05-03T14:24:11.719Z,1.60
2019-05-03T14:26:41.501Z,1.50
2019-05-03T14:29:10.730Z,1.50
2019-05-03T14:31:40.134Z,1.60
2019-05-03T14:34:09.207Z,1.60
2019-05-03T14:36:37.903Z,1.53
2019-05-03T14:39:10.083Z,1.60
2019-05-03T14:41:38.702Z,1.77
2019-05-03T14:44:07.640Z,1.90
2019-05-03T14:46:36.746Z,1.80
2019-05-03T14:49:05.833Z,1.70
2019-05-03T14:51:35.180Z,1.80
2019-05-03T14:54:05.537Z,1.43
2019-05-03T14:56:51.232Z,1.97
2019-05-03T14:59:36.795Z,1.93
2019-05-03T15:02:07.428Z,2.20
2019-05-03T15:04:36.429Z,1.97
2019-05-03T15:07:06.029Z,2.07
2019-05-03T15:09:36.861Z,2.23
2019-05-03T15:12:05.907Z,1.80
2019-05-03T15:14:35.088Z,2.17
2019-05-03T15:17:05.377Z,1.90
2019-05-03T15:19:34.882Z,1.93
2019-05-03T15:22:05.667Z,1.80
2019-05-03T15:24:34.696Z,1.57
2019-05-03T15:27:04.923Z,1.67
2019-05-03T15:29:35.517Z,1.27
2019-05-03T15:32:05.174Z,1.37
2019-05-03T15:34:35.398Z,1.30
2019-05-03T15:37:05.398Z,1.20
2019-05-03T15:39:34.788Z,1.77
2019-05-03T15:42:05.305Z,1.50
2019-05-03T15:44:35.741Z,1.80
2019-05-03T15:47:09.441Z,1.80
2019-05-03T15:49:36.883Z,1.70
2019-05-03T15:52:05.791Z,1.73
2019-05-03T15:54:35.322Z,1.80
2019-05-03T15:57:05.057Z,1.90
2019-05-03T15:59:33.883Z,1.90
2019-05-03T16:02:04.507Z,1.40
2019-05-03T16:04:33.428Z,1.90
2019-05-03T16:07:02.283Z,1.60
2019-05-03T16:09:31.164Z,1.90
2019-05-03T16:12:00.190Z,2.00
2019-05-03T16:14:29.165Z,1.53
2019-05-03T16:16:58.199Z,1.50
2019-05-03T16:19:26.986Z,1.30
2019-05-03T16:21:55.918Z,1.60
2019-05-03T16:24:25.061Z,1.53
2019-05-03T16:27:14.032Z,1.30
2019-05-03T16:29:45.946Z,1.50
2019-05-03T16:32:13.407Z,2.30
2019-05-03T16:34:44.381Z,3.20
2019-05-03T16:37:14.738Z,2.07
2019-05-03T16:39:45.204Z,2.20
2019-05-03T16:42:15.480Z,2.43
2019-05-03T16:44:44.583Z,2.00
2019-05-03T16:47:15.531Z,2.77
2019-05-03T16:49:44.622Z,2.00
2019-05-03T16:52:14.673Z,2.17
2019-05-03T16:54:45.382Z,1.60
2019-05-03T16:57:14.872Z,2.63
2019-05-03T16:59:45.182Z,1.60
2019-05-03T17:02:14.684Z,1.93
2019-05-03T17:04:48.830Z,1.60
2019-05-03T17:07:19.450Z,1.60
2019-05-03T17:09:52.958Z,1.70
2019-05-03T17:12:26.678Z,1.50
2019-05-03T17:14:57.033Z,2.07
2019-05-03T17:17:26.550Z,2.10
2019-05-03T17:19:55.471Z,2.00
2019-05-03T17:22:25.214Z,1.80
2019-05-03T17:24:54.269Z,2.07
2019-05-03T17:27:24.878Z,1.60
2019-05-03T17:29:55.277Z,1.50
2019-05-03T17:32:24.587Z,1.80
2019-05-03T17:34:54.886Z,1.57
2019-05-03T17:37:25.697Z,1.60
2019-05-03T17:40:14.731Z,1.60
2019-05-03T17:43:01.628Z,1.90
2019-05-03T17:45:32.166Z,1.83
2019-05-03T17:48:01.053Z,1.40
2019-05-03T17:50:30.049Z,1.77
2019-05-03T17:53:00.658Z,11.70
2019-05-03T17:55:40.122Z,5.63
2019-05-03T17:58:24.262Z,2.63
2019-05-03T18:00:58.029Z,2.07
2019-05-03T18:03:28.556Z,2.10
2019-05-03T18:05:59.190Z,3.17
2019-05-03T18:08:39.166Z,2.53
2019-05-03T18:11:09.568Z,3.03
2019-05-03T18:13:39.138Z,3.10
2019-05-03T18:16:08.157Z,2.10
2019-05-03T18:18:37.045Z,2.40
2019-05-03T18:21:05.969Z,5.30
2019-05-03T18:23:35.160Z,7.07
2019-05-03T18:26:05.264Z,4.37
2019-05-03T18:28:35.612Z,3.97
2019-05-03T18:31:05.329Z,2.50
2019-05-03T18:33:35.723Z,3.10
2019-05-03T18:36:05.595Z,2.77
2019-05-03T18:38:38.598Z,3.50
2019-05-03T18:41:08.599Z,3.80
2019-05-03T18:43:39.479Z,3.70
2019-05-03T18:46:10.076Z,4.30
2019-05-03T18:48:38.842Z,4.03
2019-05-03T18:51:07.647Z,4.03
2019-05-03T18:53:36.550Z,3.83
2019-05-03T18:56:05.423Z,3.70
2019-05-03T18:58:34.339Z,3.30
2019-05-03T19:01:05.351Z,2.67
2019-05-03T19:03:34.584Z,2.97
2019-05-03T19:06:08.070Z,2.57
2019-05-03T19:08:44.854Z,3.00
2019-05-03T19:11:15.411Z,2.73
2019-05-03T19:13:48.912Z,3.30
2019-05-03T19:16:31.697Z,3.27
2019-05-03T19:19:00.854Z,4.10
2019-05-03T19:21:29.979Z,4.97
2019-05-03T19:23:58.933Z,7.63
2019-05-03T19:26:27.839Z,5.53
2019-05-03T19:28:56.814Z,5.00
2019-05-03T19:31:25.934Z,4.87
2019-05-03T19:33:55.047Z,3.77
2019-05-03T19:36:24.142Z,4.70
2019-05-03T19:38:54.632Z,5.20
2019-05-03T19:41:25.142Z,4.47
2019-05-03T19:43:55.054Z,4.53
2019-05-03T19:46:24.839Z,3.93
2019-05-03T19:48:54.707Z,4.07
2019-05-03T19:51:23.782Z,4.90
2019-05-03T19:53:56.258Z,4.27
2019-05-03T19:56:25.720Z,4.50
2019-05-03T19:58:56.379Z,4.87
2019-05-03T20:01:26.924Z,4.70
2019-05-03T20:04:15.109Z,5.67
2019-05-03T20:06:45.771Z,6.87
2019-05-03T20:09:25.819Z,9.13
2019-05-03T20:11:55.205Z,22.07
2019-05-03T20:14:25.781Z,13.53
2019-05-03T20:16:55.020Z,16.17
2019-05-03T20:19:25.494Z,10.93
2019-05-03T20:21:54.232Z,8.33
2019-05-03T20:24:25.323Z,9.03
2019-05-03T20:26:54.487Z,8.60
2019-05-03T20:29:25.080Z,9.57
2019-05-03T20:31:55.205Z,7.07
2019-05-03T20:34:24.881Z,7.40
2019-05-03T20:36:54.825Z,6.77
2019-05-03T20:39:25.419Z,6.53
2019-05-03T20:41:55.067Z,7.37
2019-05-03T20:44:32.087Z,13.37
2019-05-03T20:47:05.271Z,10.90
2019-05-03T20:49:34.740Z,10.03
2019-05-03T20:52:04.122Z,12.53
2019-05-03T20:54:34.852Z,47.93
2019-05-03T20:57:06.828Z,67.30
2019-05-03T20:59:42.997Z,34.27
2019-05-03T21:02:06.206Z,20.10
2019-05-03T21:04:35.430Z,16.30
2019-05-03T21:07:04.777Z,12.57
2019-05-03T21:09:34.563Z,12.90
2019-05-03T21:12:04.515Z,11.83
2019-05-03T21:14:35.030Z,9.53
2019-05-03T21:17:05.617Z,8.67
2019-05-03T21:19:36.076Z,8.17
2019-05-03T21:22:06.718Z,8.77
2019-05-03T21:24:37.363Z,7.80
2019-05-03T21:27:06.337Z,8.17
2019-05-03T21:29:36.733Z,12.00
2019-05-03T21:32:05.624Z,19.60
2019-05-03T21:34:34.701Z,17.83
2019-05-03T21:37:05.884Z,16.37
2019-05-03T21:39:34.899Z,12.10
2019-05-03T21:42:04.712Z,8.47
2019-05-03T21:44:35.361Z,9.00
2019-05-03T21:47:08.891Z,13.50
2019-05-03T21:49:41.984Z,16.30
2019-05-03T21:52:10.773Z,14.00
2019-05-03T21:54:41.078Z,13.13
2019-05-03T21:57:09.980Z,12.43
2019-05-03T21:59:38.754Z,14.77
2019-05-03T22:02:07.773Z,17.60
2019-05-03T22:04:36.749Z,43.80
2019-05-03T22:07:06.262Z,67.00
2019-05-03T22:09:36.546Z,41.50
2019-05-03T22:12:05.462Z,30.07
2019-05-03T22:14:35.803Z,23.90
2019-05-03T22:17:22.946Z,20.10
2019-05-03T22:19:54.311Z,17.63
2019-05-03T22:22:30.910Z,14.00
2019-05-03T22:25:01.452Z,13.20
2019-05-03T22:27:31.984Z,12.43
2019-05-03T22:30:00.809Z,13.37
2019-05-03T22:32:29.657Z,12.03
2019-05-03T22:34:58.352Z,11.10
2019-05-03T22:37:27.339Z,12.07
2019-05-03T22:39:56.549Z,13.43
2019-05-03T22:42:25.409Z,10.00
2019-05-03T22:44:55.375Z,10.10
2019-05-03T22:47:25.325Z,10.20
2019-05-03T22:49:54.843Z,8.57
2019-05-03T22:52:25.618Z,8.33
2019-05-03T22:54:55.486Z,8.70
2019-05-03T22:57:25.909Z,8.73
2019-05-03T22:59:54.794Z,9.03
2019-05-03T23:02:24.845Z,11.30
2019-05-03T23:04:55.456Z,19.67
2019-05-03T23:07:24.975Z,17.80
2019-05-03T23:09:54.171Z,14.70
2019-05-03T23:12:23.233Z,16.83
2019-05-03T23:14:52.210Z,15.43
2019-05-03T23:17:21.298Z,12.77
2019-05-03T23:19:51.832Z,11.47
2019-05-03T23:22:24.477Z,13.67
2019-05-03T23:24:54.268Z,10.13
2019-05-03T23:27:25.002Z,8.47
2019-05-03T23:29:54.484Z,10.10
2019-05-03T23:32:24.477Z,11.30
2019-05-03T23:34:54.453Z,11.43
2019-05-03T23:37:23.526Z,10.40
2019-05-03T23:39:52.279Z,10.57
2019-05-03T23:42:21.011Z,10.00
2019-05-03T23:44:49.874Z,11.80
2019-05-03T23:47:36.939Z,12.80
2019-05-03T23:50:09.405Z,16.67
2019-05-03T23:52:38.191Z,14.90
2019-05-03T23:55:09.193Z,14.13
2019-05-03T23:57:38.148Z,13.50
